Weather History for Weslaco, TX

Change the Weather History Date:

Sunday, February 3, 2013

  Actual Average (KMFE) Record (KMFE)
Temperature  
Mean Temperature 68 °F 63 °F  
Max Temperature 79 °F 73 °F 93 °F (2006)
Min Temperature 58 °F 52 °F 19 °F (1888)
Degree Days  
Heating Degree Days 0 5  
Month to date heating degree days 15  
Since 1 July heating degree days 442  
Cooling Degree Days 4 3  
Month to date cooling degree days 7  
Year to date cooling degree days 69  
Growing Degree Days 18 (Base 50)    
Moisture  
Dew Point 53 °F    
Average Humidity 62    
Maximum Humidity 90    
Minimum Humidity 29    
Precipitation  
Precipitation 0.00 in 0.05 in 2.46 in (1986)
Month to date precipitation 0.14  
Year to date precipitation 1.19  
Sea Level Pressure  
Sea Level Pressure 30.18 in    
Wind  
Wind Speed 5 mph (ESE)    
Max Wind Speed 16 mph    
Max Gust Speed 21 mph    
Visibility 10 miles    
Events      
T = Trace of Precipitation, MM = Missing Value Source: NWS Daily Summary

Daily Weather History Graph

Daily Weather History Graph

Search for Another Location

Airport:

Trip Planner

Search our weather history database for the weather conditions in past years. The results will help you decide how hot, cold, wet, or windy it might be!

Date:

Astronomy

Feb. 03, 2013 Rise Set
Actual Time 7:15 AM CST 6:16 PM CST
Civil Twilight 6:51 AM CST 6:40 PM CST
Nautical Twilight 6:23 AM CST 7:08 PM CST
Astronomical Twilight 5:56 AM CST 7:35 PM CST
Moon 12:42 AM CST (2/3) 11:58 AM CST (2/3)
Length of Visible Light 11h 49m
Length of Day
11h 01m
Waning Gibbous, 48% of the Moon is Illuminated
Feb 3
Waning Gibbous
Feb 10
New
Feb 17
First Quarter
Feb 25
Full
Mar 4
Last Quarter

Hourly Weather History & Observations

Time (CST) Temp. Dew Point Humidity Pressure Visibility Wind Dir Wind Speed Gust Speed Precip Events Conditions
12:15 AM 63.0 °F 56.8 °F 80% 30.23 in 10.0 mi ESE 3.5 mph - N/A   Clear
12:35 AM 63.0 °F 56.7 °F 80% 30.23 in 10.0 mi ESE 3.5 mph - N/A   Clear
12:55 AM 62.6 °F 56.3 °F 80% 30.23 in 10.0 mi ESE 3.5 mph - N/A   Clear
1:15 AM 62.1 °F 56.3 °F 81% 30.23 in 10.0 mi ESE 4.6 mph - N/A   Clear
1:35 AM 62.1 °F 56.3 °F 81% 30.23 in 10.0 mi ESE 3.5 mph - N/A   Clear
1:55 AM 61.9 °F 56.3 °F 82% 30.22 in 10.0 mi Calm Calm - N/A   Clear
2:15 AM 61.7 °F 56.3 °F 82% 30.22 in 10.0 mi Calm Calm - N/A   Clear
2:35 AM 61.3 °F 55.6 °F 81% 30.22 in 10.0 mi East 3.5 mph - N/A   Clear
2:55 AM 58.6 °F 54.5 °F 86% 30.22 in 10.0 mi Calm Calm - N/A   Clear
3:15 AM 58.6 °F 55.0 °F 88% 30.23 in 10.0 mi Calm Calm - N/A   Scattered Clouds
3:55 AM 59.0 °F 55.9 °F 90% 30.23 in 10.0 mi Calm Calm - N/A   Overcast
4:15 AM 59.4 °F 55.6 °F 87% 30.23 in 10.0 mi Calm Calm - N/A   Overcast
4:35 AM 59.2 °F 55.4 °F 87% 30.23 in 10.0 mi Calm Calm - N/A   Overcast
4:55 AM 60.8 °F 56.5 °F 86% 30.23 in 10.0 mi East 3.5 mph - N/A   Overcast
5:15 AM 61.2 °F 56.3 °F 84% 30.23 in 10.0 mi Calm Calm - N/A   Overcast
5:35 AM 60.8 °F 56.1 °F 85% 30.24 in 10.0 mi East 3.5 mph - N/A   Overcast
5:55 AM 60.4 °F 56.3 °F 86% 30.24 in 10.0 mi Calm Calm - N/A   Mostly Cloudy
6:15 AM 60.8 °F 56.3 °F 85% 30.25 in 10.0 mi Calm Calm - N/A   Overcast
6:35 AM 61.7 °F 56.8 °F 84% 30.25 in 10.0 mi Calm Calm - N/A   Overcast
6:55 AM 61.7 °F 56.7 °F 84% 30.26 in 10.0 mi Calm Calm - N/A   Overcast
7:15 AM 61.9 °F 56.8 °F 84% 30.26 in 10.0 mi Calm Calm - N/A   Overcast
7:35 AM 61.7 °F 57.0 °F 85% 30.26 in 10.0 mi Calm Calm - N/A   Overcast
7:55 AM 63.1 °F 57.4 °F 81% 30.26 in 10.0 mi Calm Calm - N/A   Scattered Clouds
8:15 AM 65.3 °F 57.9 °F 77% 30.26 in 10.0 mi Calm Calm - N/A   Clear
8:35 AM 66.6 °F 57.9 °F 74% 30.26 in 10.0 mi Calm Calm - N/A   Clear
9:15 AM 70.9 °F 58.1 °F 64% 30.27 in 10.0 mi SSE 6.9 mph - N/A   Clear
9:35 AM 72.1 °F 58.3 °F 62% 30.28 in 10.0 mi SSE 5.8 mph - N/A   Clear
9:55 AM 73.6 °F 56.7 °F 55% 30.28 in 10.0 mi South 6.9 mph - N/A   Clear
10:15 AM 74.1 °F 54.7 °F 51% 30.28 in 10.0 mi SE 6.9 mph - N/A   Clear
10:55 AM 76.5 °F 53.4 °F 45% 30.27 in 10.0 mi ESE 5.8 mph - N/A   Clear
11:15 AM 77.7 °F 49.1 °F 36% 30.26 in 10.0 mi East 8.1 mph - N/A   Clear
11:35 AM 78.1 °F 48.4 °F 35% 30.25 in 10.0 mi ENE 6.9 mph - N/A   Clear
11:55 AM 78.4 °F 46.2 °F 32% 30.24 in 10.0 mi East 8.1 mph - N/A   Scattered Clouds
12:15 PM 76.6 °F 46.4 °F 34% 30.23 in 10.0 mi ENE 6.9 mph 16.1 mph N/A   Scattered Clouds
12:35 PM 77.0 °F 46.6 °F 34% 30.22 in 10.0 mi East 4.6 mph - N/A   Mostly Cloudy
12:55 PM 78.1 °F 45.7 °F 32% 30.21 in 10.0 mi ESE 9.2 mph - N/A   Mostly Cloudy
1:15 PM 78.8 °F 45.5 °F 31% 30.19 in 10.0 mi East 9.2 mph - N/A   Mostly Cloudy
1:35 PM 78.8 °F 44.8 °F 30% 30.18 in 10.0 mi East 10.4 mph - N/A   Scattered Clouds
1:55 PM 79.0 °F 44.6 °F 30% 30.16 in 10.0 mi SE 10.4 mph - N/A   Mostly Cloudy
2:15 PM 78.4 °F 43.9 °F 29% 30.15 in 10.0 mi ESE 6.9 mph - N/A   Mostly Cloudy
2:35 PM 77.9 °F 43.2 °F 29% 30.14 in 10.0 mi East 10.4 mph 18.4 mph N/A   Mostly Cloudy
2:55 PM 78.1 °F 43.0 °F 29% 30.13 in 10.0 mi East 12.7 mph 18.4 mph N/A   Mostly Cloudy
3:15 PM 77.5 °F 42.8 °F 29% 30.13 in 10.0 mi East 12.7 mph 20.7 mph N/A   Mostly Cloudy
3:35 PM 77.2 °F 43.0 °F 30% 30.13 in 10.0 mi ESE 11.5 mph 17.3 mph N/A   Clear
3:55 PM 76.3 °F 42.6 °F 30% 30.12 in 10.0 mi East 10.4 mph 18.4 mph N/A   Clear
4:15 PM 75.9 °F 42.4 °F 30% 30.12 in 10.0 mi East 12.7 mph 18.4 mph N/A   Clear
4:35 PM 74.5 °F 43.2 °F 33% 30.12 in 10.0 mi East 12.7 mph 18.4 mph N/A   Clear
4:55 PM 73.8 °F 43.7 °F 34% 30.11 in 10.0 mi East 16.1 mph 20.7 mph N/A   Clear
5:15 PM 73.2 °F 44.2 °F 35% 30.10 in 10.0 mi East 11.5 mph 19.6 mph N/A   Clear
5:35 PM 72.0 °F 45.9 °F 39% 30.10 in 10.0 mi East 13.8 mph 20.7 mph N/A   Clear
5:55 PM 70.7 °F 48.2 °F 45% 30.10 in 10.0 mi ESE 12.7 mph 20.7 mph N/A   Clear
6:15 PM 69.6 °F 49.8 °F 49% 30.10 in 10.0 mi East 11.5 mph 18.4 mph N/A   Clear
6:35 PM 68.5 °F 52.5 °F 57% 30.09 in 10.0 mi ESE 13.8 mph 18.4 mph N/A   Clear
6:55 PM 68.0 °F 53.8 °F 60% 30.10 in 10.0 mi ESE 9.2 mph 16.1 mph N/A   Clear
7:15 PM 67.1 °F 54.7 °F 64% 30.10 in 10.0 mi ESE 9.2 mph - N/A   Clear
7:35 PM 66.7 °F 55.4 °F 67% 30.10 in 10.0 mi ESE 9.2 mph - N/A   Clear
7:55 PM 66.2 °F 55.8 °F 69% 30.10 in 10.0 mi ESE 6.9 mph - N/A   Clear
8:15 PM 65.7 °F 56.1 °F 71% 30.10 in 10.0 mi ESE 6.9 mph - N/A   Clear
8:35 PM 65.3 °F 56.3 °F 73% 30.09 in 10.0 mi ESE 6.9 mph - N/A   Clear
8:55 PM 64.9 °F 56.5 °F 74% 30.09 in 10.0 mi ESE 5.8 mph - N/A   Clear
9:15 PM 64.9 °F 56.7 °F 74% 30.09 in 10.0 mi SE 5.8 mph - N/A   Clear
9:35 PM 64.9 °F 56.3 °F 74% 30.08 in 10.0 mi SE 6.9 mph - N/A   Clear
9:55 PM 64.4 °F 56.3 °F 75% 30.08 in 10.0 mi SE 6.9 mph - N/A   Clear
10:15 PM 64.2 °F 55.9 °F 74% 30.08 in 10.0 mi SE 6.9 mph - N/A   Clear
10:35 PM 64.0 °F 55.8 °F 74% 30.07 in 10.0 mi SE 4.6 mph - N/A   Clear
10:55 PM 64.2 °F 55.4 °F 73% 30.06 in 10.0 mi SE 6.9 mph - N/A   Clear
11:35 PM 63.5 °F 55.0 °F 74% 30.04 in 10.0 mi SE 5.8 mph - N/A   Clear
11:55 PM 63.0 °F 55.0 °F 75% 30.03 in 10.0 mi SE 5.8 mph - N/A   Clear